createdAt,value
2017-07-17T00:17:22.000Z,1014.22
2017-07-17T00:27:22.000Z,1014.13
2017-07-17T00:37:22.000Z,1014.142
2017-07-17T00:47:22.000Z,1014.15
2017-07-17T00:57:22.000Z,1014.158
2017-07-17T01:07:22.000Z,1014.211
2017-07-17T01:17:22.000Z,1014.249
2017-07-17T01:27:22.000Z,1014.251
2017-07-17T01:37:22.000Z,1014.18
2017-07-17T01:47:22.000Z,1014.147
2017-07-17T01:57:22.000Z,1014.099
2017-07-17T02:07:22.000Z,1014.108
2017-07-17T02:17:22.000Z,1014.136
2017-07-17T02:27:22.000Z,1014.072
2017-07-17T02:37:22.000Z,1014.142
2017-07-17T02:47:22.000Z,1014.166
2017-07-17T02:57:22.000Z,1014.19
2017-07-17T03:07:22.000Z,1014.138
2017-07-17T03:17:22.000Z,1014.105
2017-07-17T03:27:22.000Z,1014.055
2017-07-17T03:37:22.000Z,1014.173
2017-07-17T03:47:22.000Z,1014.243
2017-07-17T03:57:22.000Z,1014.374
2017-07-17T04:07:22.000Z,1014.465
2017-07-17T04:17:22.000Z,1014.541
2017-07-17T04:27:22.000Z,1014.434
2017-07-17T04:37:22.000Z,1014.53
2017-07-17T04:47:22.000Z,1014.54
2017-07-17T04:57:22.000Z,1014.596
2017-07-17T05:07:22.000Z,1014.671
2017-07-17T05:17:22.000Z,1014.739
2017-07-17T05:27:22.000Z,1014.81
2017-07-17T05:37:22.000Z,1014.855
2017-07-17T05:47:22.000Z,1014.922
2017-07-17T05:57:23.000Z,1015.069
2017-07-17T06:07:23.000Z,1015.165
2017-07-17T06:17:23.000Z,1015.19
2017-07-17T06:27:23.000Z,1015.304
2017-07-17T06:37:23.000Z,1015.395
2017-07-17T06:47:23.000Z,1015.482
2017-07-17T06:57:23.000Z,1015.531
2017-07-17T07:07:23.000Z,1015.479
2017-07-17T07:17:23.000Z,1015.62
2017-07-17T07:27:23.000Z,1015.665
2017-07-17T07:37:23.000Z,1015.717
2017-07-17T07:47:23.000Z,1015.786
2017-07-17T07:57:23.000Z,1015.797
2017-07-17T08:07:23.000Z,1015.831
2017-07-17T08:17:23.000Z,1015.756
2017-07-17T08:27:24.000Z,1015.731
2017-07-17T08:37:27.000Z,1015.771
2017-07-17T08:47:23.000Z,1015.722
2017-07-17T08:57:23.000Z,1015.756
2017-07-17T09:07:23.000Z,1015.753
2017-07-17T09:17:23.000Z,1015.721
2017-07-17T09:27:23.000Z,1015.512
2017-07-17T09:37:23.000Z,1015.488
2017-07-17T09:47:23.000Z,1015.496
2017-07-17T09:57:23.000Z,1015.542
2017-07-17T10:07:25.000Z,1015.506
2017-07-17T10:17:23.000Z,1015.519
2017-07-17T10:27:23.000Z,1015.511
2017-07-17T10:37:23.000Z,1015.471
2017-07-17T10:47:23.000Z,1015.503
2017-07-17T10:57:23.000Z,1015.529
2017-07-17T11:07:23.000Z,1015.525
2017-07-17T11:17:23.000Z,1015.605
2017-07-17T11:27:23.000Z,1015.63
2017-07-17T11:37:23.000Z,1015.568
2017-07-17T12:07:23.000Z,1015.517
2017-07-17T12:17:24.000Z,1015.377
2017-07-17T12:27:23.000Z,1015.36
2017-07-17T12:37:23.000Z,1015.29
2017-07-17T12:47:23.000Z,1015.251
2017-07-17T12:57:23.000Z,1015.202
2017-07-17T13:07:23.000Z,1015.211
2017-07-17T13:17:23.000Z,1015.11
2017-07-17T13:27:23.000Z,1015.096
2017-07-17T13:37:23.000Z,1015.13
2017-07-17T13:47:23.000Z,1015.037
2017-07-17T13:57:23.000Z,1014.985
2017-07-17T14:07:23.000Z,1014.988
2017-07-17T14:17:24.000Z,1014.957
2017-07-17T14:27:24.000Z,1014.998
2017-07-17T14:37:24.000Z,1014.938
2017-07-17T14:47:24.000Z,1014.879
2017-07-17T14:57:27.000Z,1014.819
2017-07-17T15:07:24.000Z,1014.809
2017-07-17T15:17:24.000Z,1014.772
2017-07-17T15:27:24.000Z,1014.802
2017-07-17T15:37:24.000Z,1014.713
2017-07-17T15:47:24.000Z,1014.623
2017-07-17T15:57:24.000Z,1014.61
2017-07-17T16:07:24.000Z,1014.606
2017-07-17T16:17:24.000Z,1014.539
2017-07-17T16:27:24.000Z,1014.438
2017-07-17T16:37:24.000Z,1014.39
2017-07-17T16:47:24.000Z,1014.327
2017-07-17T16:57:24.000Z,1014.351
2017-07-17T17:17:24.000Z,1014.419
2017-07-17T17:27:24.000Z,1014.404
2017-07-17T17:37:24.000Z,1014.429
2017-07-17T17:47:24.000Z,1014.488
2017-07-17T17:57:24.000Z,1014.529
2017-07-17T18:07:24.000Z,1014.528
2017-07-17T18:17:24.000Z,1014.52
2017-07-17T18:27:24.000Z,1014.54
2017-07-17T18:37:24.000Z,1014.594
2017-07-17T18:47:24.000Z,1014.61
2017-07-17T18:57:24.000Z,1014.617
2017-07-17T19:07:24.000Z,1014.673
2017-07-17T19:17:24.000Z,1014.767
2017-07-17T19:27:24.000Z,1014.787
2017-07-17T19:37:24.000Z,1014.831
2017-07-17T19:47:24.000Z,1014.846
2017-07-17T19:57:24.000Z,1014.97
2017-07-17T20:07:24.000Z,1015.019
2017-07-17T20:17:24.000Z,1015.022
2017-07-17T20:27:24.000Z,1015.033
2017-07-17T20:37:24.000Z,1015.001
2017-07-17T20:47:24.000Z,1015.003
2017-07-17T20:57:24.000Z,1015.04
2017-07-17T21:07:24.000Z,1015.034
2017-07-17T21:17:26.000Z,1015.042
2017-07-17T21:27:27.000Z,1015.039
2017-07-17T21:37:24.000Z,1015.054
2017-07-17T21:47:24.000Z,1015.157
2017-07-17T21:57:24.000Z,1015.204
2017-07-17T22:07:24.000Z,1015.23
2017-07-17T22:17:24.000Z,1015.216
2017-07-17T22:27:25.000Z,1015.282
2017-07-17T22:37:25.000Z,1015.279
2017-07-17T22:47:25.000Z,1015.277
2017-07-17T22:57:25.000Z,1015.267
2017-07-17T23:07:25.000Z,1015.331
2017-07-17T23:17:25.000Z,1015.339
2017-07-17T23:27:25.000Z,1015.334
2017-07-17T23:37:25.000Z,1015.301
2017-07-17T23:47:25.000Z,1015.338
2017-07-17T23:57:25.000Z,1015.297
